createdAt,value
2022-11-20T00:05:06.457Z,26.15
2022-11-20T00:07:39.688Z,26.75
2022-11-20T00:10:13.441Z,27.03
2022-11-20T00:12:46.608Z,26.44
2022-11-20T00:15:13.309Z,26.74
2022-11-20T00:17:58.464Z,26.93
2022-11-20T00:20:33.564Z,25.81
2022-11-20T00:23:06.484Z,26.20
2022-11-20T00:32:58.402Z,25.05
2022-11-20T00:35:40.435Z,25.08
2022-11-20T00:38:13.694Z,25.49
2022-11-20T00:40:40.360Z,25.53
2022-11-20T00:43:20.472Z,24.23
2022-11-20T00:45:58.081Z,23.87
2022-11-20T00:58:56.395Z,24.17
2022-11-20T01:01:36.501Z,24.19
2022-11-20T01:04:09.662Z,24.26
2022-11-20T01:06:45.438Z,25.33
2022-11-20T01:09:18.880Z,24.72
2022-11-20T01:11:52.414Z,24.93
2022-11-20T01:25:20.432Z,24.67
2022-11-20T01:27:53.570Z,25.38
2022-11-20T01:30:20.257Z,24.98
2022-11-20T01:33:02.452Z,24.60
2022-11-20T01:35:35.621Z,23.87
2022-11-20T01:38:02.287Z,24.55
2022-11-20T01:40:44.421Z,24.87
2022-11-20T01:53:54.446Z,24.70
2022-11-20T01:56:41.803Z,24.63
2022-11-20T01:59:25.676Z,24.37
2022-11-20T02:01:59.287Z,24.83
2022-11-20T02:04:33.479Z,23.74
2022-11-20T02:07:06.755Z,24.44
2022-11-20T02:19:57.393Z,24.42
2022-11-20T02:22:50.467Z,24.17
2022-11-20T02:25:28.443Z,24.61
2022-11-20T02:28:09.411Z,24.57
2022-11-20T02:30:42.567Z,23.59
2022-11-20T02:33:09.241Z,23.78
2022-11-20T02:46:14.432Z,23.50
2022-11-20T02:48:54.393Z,23.98
2022-11-20T02:51:27.625Z,23.17
2022-11-20T02:53:54.312Z,22.94
2022-11-20T02:56:34.399Z,23.14
2022-11-20T02:59:07.900Z,23.37
2022-11-20T03:01:44.015Z,22.90
2022-11-20T03:12:14.404Z,23.35
2022-11-20T03:15:01.388Z,22.72
2022-11-20T03:17:36.865Z,22.90
2022-11-20T03:20:12.410Z,22.29
2022-11-20T03:22:45.604Z,22.53
2022-11-20T03:25:12.338Z,22.93
2022-11-20T03:27:52.393Z,22.14
2022-11-20T03:41:09.436Z,22.82
2022-11-20T03:43:42.651Z,22.44
2022-11-20T03:46:22.413Z,22.23
2022-11-20T03:48:56.618Z,22.09
2022-11-20T03:51:32.400Z,22.06
2022-11-20T04:08:09.348Z,22.27
2022-11-20T04:10:49.393Z,21.91
2022-11-20T04:13:22.635Z,22.29
2022-11-20T04:15:49.295Z,22.38
2022-11-20T04:18:29.419Z,21.73
2022-11-20T04:21:03.697Z,22.28
2022-11-20T04:33:54.348Z,23.32
2022-11-20T04:36:36.381Z,22.75
2022-11-20T04:39:14.424Z,22.65
2022-11-20T04:41:54.408Z,22.34
2022-11-20T04:44:33.352Z,23.15
2022-11-20T04:47:13.373Z,22.10
2022-11-20T05:00:26.360Z,20.82
2022-11-20T05:02:59.677Z,20.49
2022-11-20T05:05:33.877Z,19.99
2022-11-20T05:08:07.563Z,20.68
2022-11-20T05:10:40.392Z,20.06
2022-11-20T05:13:13.669Z,20.51
2022-11-20T05:26:06.334Z,20.30
2022-11-20T05:28:46.399Z,20.37
2022-11-20T05:31:27.116Z,20.43
2022-11-20T05:34:08.400Z,19.50
2022-11-20T05:36:41.661Z,19.76
2022-11-20T05:39:08.312Z,20.89
2022-11-20T05:41:50.365Z,20.23
2022-11-20T05:55:00.379Z,20.29
2022-11-20T05:57:35.620Z,20.45
2022-11-20T06:00:10.393Z,20.19
2022-11-20T06:02:43.679Z,19.71
2022-11-20T06:05:24.344Z,20.08
2022-11-20T06:07:57.528Z,20.24
2022-11-20T06:20:47.332Z,20.05
2022-11-20T06:23:27.350Z,20.08
2022-11-20T06:26:03.576Z,20.38
2022-11-20T06:28:36.376Z,20.06
2022-11-20T06:31:13.400Z,19.43
2022-11-20T06:47:35.368Z,20.01
2022-11-20T06:50:09.560Z,20.66
2022-11-20T06:52:43.801Z,20.68
2022-11-20T06:55:17.552Z,20.50
2022-11-20T06:57:54.724Z,20.05
2022-11-20T07:00:29.790Z,20.01
2022-11-20T07:03:05.332Z,21.13
2022-11-20T07:13:05.377Z,21.33
2022-11-20T07:15:46.406Z,21.75
2022-11-20T07:18:21.487Z,20.71
2022-11-20T07:20:54.338Z,20.74
2022-11-20T07:23:27.656Z,22.10
2022-11-20T07:26:11.362Z,20.61
2022-11-20T07:39:50.343Z,21.28
2022-11-20T07:42:23.559Z,22.09
2022-11-20T07:44:58.372Z,22.62
2022-11-20T07:47:36.063Z,21.86
2022-11-20T07:50:16.369Z,23.04
2022-11-20T07:53:02.564Z,22.18
2022-11-20T08:06:34.308Z,22.57
2022-11-20T08:09:14.331Z,23.37
2022-11-20T08:11:47.564Z,23.08
2022-11-20T08:14:14.249Z,24.18
2022-11-20T08:16:57.092Z,22.96
2022-11-20T08:19:31.271Z,23.03
2022-11-20T08:22:06.316Z,23.02
2022-11-20T08:35:16.333Z,15.37
2022-11-20T08:37:51.430Z,15.28
2022-11-20T08:40:25.310Z,15.08
2022-11-20T08:42:58.633Z,14.78
2022-11-20T08:45:34.605Z,15.11
2022-11-20T08:48:08.580Z,15.20
2022-11-20T09:00:58.346Z,15.06
2022-11-20T09:03:38.324Z,14.37
2022-11-20T09:06:11.569Z,14.12
2022-11-20T09:08:45.343Z,14.48
2022-11-20T09:11:18.547Z,13.16
2022-11-20T09:27:33.324Z,12.55
2022-11-20T09:30:08.660Z,12.70
2022-11-20T09:32:42.295Z,13.05
2022-11-20T09:35:15.758Z,13.18
2022-11-20T09:37:49.315Z,13.28
2022-11-20T09:40:34.929Z,13.12
2022-11-20T09:53:38.270Z,14.00
2022-11-20T09:56:35.325Z,14.36
2022-11-20T09:59:27.663Z,14.22
2022-11-20T10:02:21.334Z,14.66
2022-11-20T10:05:04.480Z,14.43
2022-11-20T10:07:53.366Z,14.30
2022-11-20T10:21:18.300Z,14.42
2022-11-20T10:24:38.937Z,14.79
2022-11-20T10:27:49.492Z,15.17
2022-11-20T10:30:22.943Z,15.33
2022-11-20T10:33:03.323Z,15.72
2022-11-20T10:35:44.382Z,16.25
2022-11-20T10:48:19.273Z,18.30
2022-11-20T10:51:18.295Z,19.56
2022-11-20T10:54:10.616Z,21.57
2022-11-20T10:56:55.296Z,18.94
2022-11-20T11:00:00.195Z,18.21
2022-11-20T11:02:46.303Z,17.79
2022-11-20T11:15:58.304Z,17.70
2022-11-20T11:18:34.596Z,17.24
2022-11-20T11:21:10.292Z,18.54
2022-11-20T11:23:43.800Z,18.38
2022-11-20T11:26:28.287Z,18.73
2022-11-20T11:43:09.248Z,18.79
2022-11-20T11:46:02.704Z,19.74
2022-11-20T11:48:35.555Z,19.22
2022-11-20T11:51:09.314Z,19.53
2022-11-20T11:53:43.747Z,19.88
2022-11-20T11:56:20.288Z,19.26
2022-11-20T12:09:44.280Z,19.80
2022-11-20T12:12:24.676Z,20.33
2022-11-20T12:15:05.288Z,20.23
2022-11-20T12:17:38.480Z,19.99
2022-11-20T12:20:19.316Z,19.69
2022-11-20T12:23:02.507Z,19.55
2022-11-20T12:36:24.239Z,18.72
2022-11-20T12:39:40.324Z,19.49
2022-11-20T12:42:53.040Z,19.06
2022-11-20T12:46:10.302Z,18.70
2022-11-20T13:03:30.249Z,18.50
2022-11-20T13:06:22.279Z,18.85
2022-11-20T13:08:56.932Z,16.70
2022-11-20T13:11:41.260Z,16.04
2022-11-20T13:14:32.687Z,15.11
2022-11-20T13:17:21.302Z,15.31
2022-11-20T13:27:40.224Z,14.65
2022-11-20T13:30:25.282Z,14.68
2022-11-20T13:33:07.687Z,15.19
2022-11-20T13:35:50.273Z,15.27
2022-11-20T13:38:23.476Z,15.23
2022-11-20T13:41:05.489Z,15.81
2022-11-20T13:55:17.261Z,15.96
2022-11-20T13:58:23.729Z,16.63
2022-11-20T14:01:14.354Z,16.42
2022-11-20T14:06:52.245Z,17.19
2022-11-20T14:23:36.231Z,18.54
2022-11-20T14:26:24.268Z,18.80
2022-11-20T14:28:57.655Z,19.36
2022-11-20T14:31:33.238Z,19.61
2022-11-20T14:34:11.197Z,19.39
2022-11-20T14:36:51.364Z,19.55
2022-11-20T14:50:09.846Z,19.96
2022-11-20T14:52:51.869Z,19.89
2022-11-20T14:55:38.279Z,19.98
2022-11-20T14:58:23.732Z,19.54
2022-11-20T15:01:07.248Z,19.57
2022-11-20T15:14:39.260Z,21.88
2022-11-20T15:17:12.558Z,23.42
2022-11-20T15:19:46.245Z,23.50
2022-11-20T15:22:19.508Z,23.49
2022-11-20T15:24:53.225Z,23.73
2022-11-20T15:27:26.441Z,23.22
2022-11-20T15:43:41.250Z,24.43
2022-11-20T15:46:17.937Z,24.68
2022-11-20T15:49:01.746Z,25.94
2022-11-20T15:51:38.052Z,26.56
2022-11-20T15:54:19.231Z,26.33
2022-11-20T15:56:52.467Z,26.23
2022-11-20T16:09:42.194Z,26.30
2022-11-20T16:12:22.240Z,28.51
2022-11-20T16:14:55.424Z,28.15
2022-11-20T16:17:22.085Z,28.09
2022-11-20T16:20:02.237Z,27.44
2022-11-20T16:22:35.453Z,27.16
2022-11-20T16:35:25.206Z,28.72
2022-11-20T16:38:05.248Z,27.18
2022-11-20T16:40:38.435Z,27.57
2022-11-20T16:43:16.231Z,27.39
2022-11-20T16:45:49.755Z,27.15
2022-11-20T16:48:23.217Z,27.11
2022-11-20T17:01:40.293Z,27.54
2022-11-20T17:04:13.431Z,28.00
2022-11-20T17:06:50.215Z,26.72
2022-11-20T17:09:23.376Z,26.79
2022-11-20T17:11:50.066Z,26.04
2022-11-20T17:14:30.226Z,26.42
2022-11-20T17:17:05.448Z,25.52
2022-11-20T17:29:53.192Z,27.91
2022-11-20T17:32:35.227Z,28.44
2022-11-20T17:35:09.064Z,27.80
2022-11-20T17:37:42.216Z,27.86
2022-11-20T17:40:15.612Z,28.98
2022-11-20T17:42:49.221Z,28.10
2022-11-20T17:56:05.476Z,27.23
2022-11-20T17:58:38.428Z,27.39
2022-11-20T18:01:12.221Z,27.49
2022-11-20T18:03:46.093Z,25.93
2022-11-20T18:06:23.297Z,27.34
2022-11-20T18:22:59.180Z,25.03
2022-11-20T18:25:39.225Z,24.91
2022-11-20T18:28:12.388Z,25.89
2022-11-20T18:30:39.049Z,25.65
2022-11-20T18:33:19.538Z,25.44
2022-11-20T18:35:54.446Z,25.34
2022-11-20T18:38:29.200Z,25.24
2022-11-20T18:48:38.422Z,24.55
2022-11-20T18:51:18.206Z,23.65
2022-11-20T18:53:53.281Z,22.84
2022-11-20T18:56:26.725Z,23.68
2022-11-20T18:59:01.730Z,23.23
2022-11-20T19:01:35.243Z,23.26
2022-11-20T19:15:26.191Z,25.02
2022-11-20T19:17:59.412Z,25.34
2022-11-20T19:20:33.219Z,25.12
2022-11-20T19:23:06.405Z,25.19
2022-11-20T19:25:37.966Z,24.46
2022-11-20T19:28:20.211Z,23.72
2022-11-20T19:42:11.190Z,23.19
2022-11-20T19:44:44.315Z,22.50
2022-11-20T19:47:14.405Z,22.05
2022-11-20T19:49:55.250Z,20.87
2022-11-20T19:52:28.392Z,20.37
2022-11-20T19:54:55.104Z,20.36
2022-11-20T19:57:39.438Z,20.07
2022-11-20T20:10:49.164Z,18.33
2022-11-20T20:13:25.129Z,17.91
2022-11-20T20:15:59.228Z,18.64
2022-11-20T20:18:32.378Z,20.41
2022-11-20T20:21:10.206Z,20.47
2022-11-20T20:37:47.132Z,21.98
2022-11-20T20:40:27.199Z,22.06
2022-11-20T20:43:00.395Z,21.69
2022-11-20T20:45:34.188Z,21.64
2022-11-20T20:48:07.344Z,21.08
2022-11-20T20:50:34.013Z,21.23
2022-11-20T20:53:19.167Z,20.85
2022-11-20T21:03:04.129Z,21.49
2022-11-20T21:05:44.204Z,20.19
2022-11-20T21:08:19.279Z,18.97
2022-11-20T21:10:52.172Z,19.51
2022-11-20T21:13:25.883Z,19.04
2022-11-20T21:15:59.196Z,18.19
2022-11-20T21:18:34.061Z,17.86
2022-11-20T21:31:27.179Z,17.30
2022-11-20T21:34:07.157Z,16.37
2022-11-20T21:36:41.311Z,16.90
2022-11-20T21:39:17.183Z,16.84
2022-11-20T21:41:50.448Z,17.75
2022-11-20T21:58:04.160Z,21.13
2022-11-20T22:00:37.361Z,21.18
2022-11-20T22:03:11.871Z,21.89
2022-11-20T22:05:54.013Z,23.37
2022-11-20T22:08:34.133Z,22.71
2022-11-20T22:11:11.129Z,23.63
2022-11-20T22:24:08.124Z,25.24
2022-11-20T22:26:48.174Z,25.27
2022-11-20T22:29:21.498Z,26.74
2022-11-20T22:32:00.165Z,26.16
2022-11-20T22:34:33.325Z,27.60
2022-11-20T22:36:59.984Z,27.97
2022-11-20T22:49:57.120Z,28.36
2022-11-20T22:52:37.159Z,27.78
2022-11-20T22:55:15.988Z,28.59
2022-11-20T22:57:56.152Z,29.55
2022-11-20T23:00:29.388Z,29.76
2022-11-20T23:02:56.046Z,29.41
2022-11-20T23:16:15.117Z,30.86
2022-11-20T23:18:59.153Z,30.63
2022-11-20T23:21:34.441Z,30.58
2022-11-20T23:24:08.133Z,31.95
2022-11-20T23:26:41.628Z,30.84
2022-11-20T23:29:15.243Z,30.80
2022-11-20T23:31:50.427Z,31.86
2022-11-20T23:44:38.100Z,30.23
2022-11-20T23:47:20.136Z,29.09
2022-11-20T23:49:53.335Z,29.46
2022-11-20T23:52:20.035Z,28.23
2022-11-20T23:55:00.153Z,27.68
2022-11-20T23:57:33.327Z,28.52
